Time;durP1;ratioP1;P1;durP2;ratioP2;P2;SDS_P1;SDS_P2;PMS_P1;PMS_P2;Temp;Humidity;BMP_temperature;BMP_pressure;BME280_temperature;BME280_humidity;BME280_pressure;Samples;Min_cycle;Max_cycle;Signal;HPM_P1;HPM_P2
2022/01/09 00:00:31;;;;;;;3.20;1.00;;;;;;;3.59;97.74;98565.72;5007597;28;20579;-72
2022/01/09 00:02:57;;;;;;;2.33;1.40;;;;;;;3.48;97.92;98558.38;4989276;28;20038;-73
2022/01/09 00:05:23;;;;;;;5.38;2.10;;;;;;;3.48;98.33;98553.25;5004334;28;20033;-72
2022/01/09 00:07:49;;;;;;;2.33;1.25;;;;;;;3.47;98.85;98549.13;5006652;28;20067;-72
2022/01/09 00:10:16;;;;;;;5.20;1.95;;;;;;;3.44;98.97;98547.66;4990433;28;20672;-73
2022/01/09 00:12:42;;;;;;;3.50;2.00;;;;;;;3.43;99.35;98545.28;5004361;28;20065;-72
2022/01/09 00:15:11;;;;;;;2.22;1.40;;;;;;;3.54;99.62;98551.78;5006720;28;20022;-72
2022/01/09 00:17:41;;;;;;;6.28;1.42;;;;;;;3.46;99.37;98553.41;4974120;28;20096;-73
2022/01/09 00:20:08;;;;;;;5.57;2.25;;;;;;;3.54;99.20;98550.03;4995389;28;20034;-72
2022/01/09 00:25:00;;;;;;;3.60;1.33;;;;;;;3.60;98.79;98546.81;5003779;28;20029;-72
2022/01/09 00:27:26;;;;;;;2.28;1.00;;;;;;;3.49;98.71;98537.72;5005556;28;20399;-73
2022/01/09 00:29:52;;;;;;;3.90;0.98;;;;;;;3.55;98.57;98543.94;5007571;28;20061;-72
2022/01/09 00:32:18;;;;;;;2.60;1.20;;;;;;;3.55;99.27;98546.50;5007754;28;20034;-73
2022/01/09 00:34:43;;;;;;;3.25;1.27;;;;;;;3.51;99.10;98543.47;4968553;28;20038;-73
2022/01/09 00:37:09;;;;;;;2.20;1.13;;;;;;;3.47;99.48;98538.88;4993838;28;20034;-72
2022/01/09 00:39:35;;;;;;;2.22;1.30;;;;;;;3.35;99.54;98540.16;5008622;28;20045;-72
2022/01/09 00:42:00;;;;;;;1.45;0.70;;;;;;;3.39;100.00;98533.75;4991712;28;20121;-72
2022/01/09 00:44:26;;;;;;;0.93;0.63;;;;;;;3.47;100.00;98536.31;5007208;28;20033;-72
2022/01/09 00:46:53;;;;;;;1.88;0.88;;;;;;;3.42;99.95;98536.78;5003609;28;20580;-72
2022/01/09 00:49:19;;;;;;;3.00;1.42;;;;;;;3.35;100.00;98533.28;5005765;28;20049;-72
2022/01/09 00:51:45;;;;;;;2.15;1.00;;;;;;;3.44;100.00;98528.94;5006188;28;20030;-72
2022/01/09 00:54:10;;;;;;;3.40;1.30;;;;;;;3.54;100.00;98528.72;5004634;28;20050;-72
2022/01/09 00:56:36;;;;;;;2.05;0.93;;;;;;;3.59;99.91;98529.84;4987421;28;20029;-72
2022/01/09 00:59:02;;;;;;;9.30;1.73;;;;;;;3.62;100.00;98526.16;5010875;28;20377;-72
2022/01/09 01:01:27;;;;;;;4.57;2.40;;;;;;;3.54;100.00;98526.16;5006861;28;20136;-72
2022/01/09 01:03:53;;;;;;;3.15;1.70;;;;;;;3.47;100.00;98526.06;5005851;28;20033;-72
2022/01/09 01:06:19;;;;;;;6.30;2.33;;;;;;;3.40;100.00;98532.78;5006361;28;20099;-72
2022/01/09 01:08:44;;;;;;;11.85;4.75;;;;;;;3.43;100.00;98528.13;5006217;28;20685;-72
2022/01/09 01:11:10;;;;;;;10.48;4.32;;;;;;;3.41;100.00;98532.63;4984662;28;20030;-72
2022/01/09 01:13:36;;;;;;;11.27;4.07;;;;;;;3.47;100.00;98533.75;4992207;28;20519;-72
2022/01/09 01:16:01;;;;;;;48.00;19.88;;;;;;;3.60;100.00;98536.56;5009571;28;20480;-72
2022/01/09 01:18:27;;;;;;;34.45;14.98;;;;;;;3.49;100.00;98535.16;4987738;28;20034;-73
2022/01/09 01:20:53;;;;;;;22.70;8.82;;;;;;;3.49;100.00;98544.63;5007717;28;20074;-72
2022/01/09 01:23:19;;;;;;;9.98;4.18;;;;;;;3.48;100.00;98553.25;5011185;28;20033;-72
2022/01/09 01:25:50;;;;;;;8.60;3.13;;;;;;;3.51;100.00;98555.50;5000584;28;20050;-73
2022/01/09 01:28:17;;;;;;;4.72;1.50;;;;;;;3.52;100.00;98567.34;5003604;28;20455;-72
2022/01/09 01:30:43;;;;;;;2.47;1.27;;;;;;;3.55;100.00;98572.13;4989117;28;20041;-73
2022/01/09 01:33:08;;;;;;;3.70;1.15;;;;;;;3.70;100.00;98587.63;4986569;28;20038;-73
2022/01/09 01:35:37;;;;;;;2.92;1.30;;;;;;;3.80;100.00;98595.91;5005079;28;20030;-72
2022/01/09 01:38:03;;;;;;;4.18;1.55;;;;;;;3.79;100.00;98601.25;4998095;28;20069;-72
2022/01/09 01:40:29;;;;;;;3.53;2.15;;;;;;;3.97;100.00;98613.81;4975860;28;20066;-73
2022/01/09 01:42:54;;;;;;;6.00;2.55;;;;;;;4.18;100.00;98620.94;5007580;28;20709;-72
2022/01/09 01:45:20;;;;;;;4.28;2.60;;;;;;;4.22;100.00;98635.84;5002384;28;20038;-72
2022/01/09 01:47:46;;;;;;;4.88;3.17;;;;;;;4.32;100.00;98637.41;4993790;28;20093;-72
2022/01/09 01:50:19;;;;;;;6.80;2.63;;;;;;;4.27;100.00;98640.47;5009943;28;20092;-72
2022/01/09 01:52:50;;;;;;;4.00;1.90;;;;;;;4.20;100.00;98654.91;5008281;28;20080;-72
2022/01/09 01:55:17;;;;;;;3.15;1.40;;;;;;;4.20;100.00;98668.56;5010880;28;20037;-72
2022/01/09 01:57:46;;;;;;;1.98;1.48;;;;;;;4.21;100.00;98666.78;5014058;28;20046;-73
2022/01/09 02:00:15;;;;;;;2.00;1.45;;;;;;;4.19;100.00;98694.38;5007408;28;20037;-72
2022/01/09 02:02:40;;;;;;;1.88;1.20;;;;;;;4.16;100.00;98707.53;4989325;28;20042;-72
2022/01/09 02:05:11;;;;;;;3.20;1.33;;;;;;;4.11;99.69;98708.03;5006802;28;20104;-72
2022/01/09 02:07:38;;;;;;;2.03;1.02;;;;;;;4.06;99.43;98723.91;5006978;28;20046;-72
2022/01/09 02:10:08;;;;;;;5.03;1.00;;;;;;;3.98;100.00;98731.63;5005110;28;20026;-72
2022/01/09 02:12:37;;;;;;;4.03;1.00;;;;;;;3.89;99.28;98740.28;5007557;28;20050;-73
2022/01/09 02:15:26;;;;;;;2.60;0.80;;;;;;;3.85;99.33;98744.16;4985473;28;20050;-73
2022/01/09 02:17:52;;;;;;;5.55;0.98;;;;;;;3.82;99.45;98745.25;5006798;28;20045;-72
2022/01/09 02:20:18;;;;;;;8.45;1.70;;;;;;;3.79;99.65;98755.84;4988742;28;20038;-72
2022/01/09 02:22:43;;;;;;;11.32;1.40;;;;;;;3.82;100.00;98768.34;4989405;28;20033;-73
2022/01/09 02:25:10;;;;;;;8.40;1.40;;;;;;;3.83;99.49;98789.66;4974115;28;20060;-72
2022/01/09 02:27:36;;;;;;;15.48;2.00;;;;;;;3.83;99.31;98790.47;5007509;28;20100;-73
2022/01/09 02:30:06;;;;;;;18.20;2.10;;;;;;;3.82;99.74;98801.66;5010099;28;20033;-73
2022/01/09 02:32:35;;;;;;;20.63;1.90;;;;;;;3.84;99.88;98806.63;4987273;28;20053;-73
2022/01/09 02:35:00;;;;;;;18.88;2.67;;;;;;;3.86;100.00;98809.84;4991172;28;20124;-73
2022/01/09 02:37:26;;;;;;;18.25;2.28;;;;;;;3.85;99.81;98814.19;5010744;28;20762;-72
2022/01/09 02:39:53;;;;;;;25.67;3.42;;;;;;;3.87;99.68;98831.97;5012437;28;20030;-73
2022/01/09 02:42:22;;;;;;;24.13;2.85;;;;;;;3.85;99.60;98828.75;4992971;28;20025;-72
2022/01/09 02:44:48;;;;;;;35.33;3.47;;;;;;;3.89;99.43;98833.41;4990031;28;20045;-73
2022/01/09 02:47:14;;;;;;;32.00;3.10;;;;;;;3.95;99.50;98847.34;4986637;28;20030;-74
2022/01/09 02:49:44;;;;;;;31.45;3.97;;;;;;;4.00;99.77;98852.00;5007098;28;20033;-72
2022/01/09 02:52:23;;;;;;;27.52;2.63;;;;;;;3.98;99.62;98848.81;5006389;28;20061;-72
2022/01/09 02:55:10;;;;;;;23.67;3.22;;;;;;;3.97;99.84;98868.50;5007760;28;20041;-72
2022/01/09 02:57:40;;;;;;;29.17;3.35;;;;;;;4.04;100.00;98877.16;4989943;28;20037;-72
2022/01/09 03:00:09;;;;;;;21.25;3.40;;;;;;;4.03;100.00;98888.41;5006753;28;20038;-72
2022/01/09 03:02:35;;;;;;;24.35;2.70;;;;;;;4.04;99.88;98895.13;5006393;28;20034;-72
2022/01/09 03:05:01;;;;;;;31.88;3.60;;;;;;;3.99;100.00;98892.22;5004688;28;20034;-73
2022/01/09 03:07:26;;;;;;;46.05;6.10;;;;;;;4.04;100.00;98890.00;4988829;28;20378;-73
2022/01/09 03:09:55;;;;;;;30.88;3.17;;;;;;;4.08;99.68;98905.88;4991513;28;20385;-72
2022/01/09 03:12:22;;;;;;;27.85;4.40;;;;;;;4.08;99.42;98924.63;5006497;28;20463;-72
2022/01/09 03:14:48;;;;;;;28.13;2.78;;;;;;;4.14;99.04;98920.59;5007116;28;20057;-72
2022/01/09 03:17:14;;;;;;;38.58;3.20;;;;;;;4.10;99.49;98932.16;4993612;28;20045;-72
2022/01/09 03:19:42;;;;;;;25.35;3.53;;;;;;;4.16;98.85;98935.84;5005300;28;20038;-72
2022/01/09 03:22:08;;;;;;;26.15;3.83;;;;;;;4.18;98.81;98954.44;5003373;28;20038;-72
2022/01/09 03:24:34;;;;;;;28.80;4.00;;;;;;;4.12;99.13;98940.50;5003163;28;20037;-72
2022/01/09 03:27:01;;;;;;;26.00;3.70;;;;;;;4.08;99.06;98955.41;5006885;28;20080;-72
2022/01/09 03:29:28;;;;;;;32.72;3.60;;;;;;;4.14;99.35;98958.28;5010907;28;20116;-72
2022/01/09 03:31:54;;;;;;;37.15;4.28;;;;;;;4.21;99.57;98961.84;5006599;28;20052;-73
2022/01/09 03:34:23;;;;;;;30.17;3.97;;;;;;;4.22;100.00;98958.28;4989933;28;20504;-72
2022/01/09 03:36:48;;;;;;;28.45;4.70;;;;;;;4.20;100.00;98958.47;5005273;28;20604;-72
2022/01/09 03:39:14;;;;;;;38.65;5.97;;;;;;;4.18;100.00;98969.84;5008803;28;20064;-72
2022/01/09 03:41:40;;;;;;;35.38;4.75;;;;;;;4.09;100.00;98979.31;5008322;28;20042;-72
2022/01/09 03:44:05;;;;;;;38.85;4.22;;;;;;;4.14;100.00;98979.63;5012194;28;20029;-72
2022/01/09 03:46:31;;;;;;;37.13;4.82;;;;;;;4.20;100.00;98994.41;5011377;28;20514;-72
2022/01/09 03:48:57;;;;;;;34.00;5.18;;;;;;;4.20;100.00;99001.25;4988714;28;20125;-73
2022/01/09 03:51:26;;;;;;;46.42;6.68;;;;;;;4.18;100.00;98995.50;5008152;28;20034;-71
2022/01/09 03:53:52;;;;;;;50.58;6.57;;;;;;;4.27;100.00;99008.16;5007426;28;20030;-72
2022/01/09 03:56:17;;;;;;;45.47;6.78;;;;;;;4.29;100.00;99018.28;4991481;28;20116;-72
2022/01/09 03:58:43;;;;;;;44.42;6.95;;;;;;;4.26;100.00;99026.31;5008891;28;20125;-73
2022/01/09 04:01:09;;;;;;;47.28;6.90;;;;;;;4.37;100.00;99023.44;5007182;28;20056;-71
2022/01/09 04:03:36;;;;;;;44.17;7.65;;;;;;;4.36;100.00;99042.34;5006939;28;20025;-73
2022/01/09 04:06:02;;;;;;;55.67;7.72;;;;;;;4.32;100.00;99053.09;5004585;28;20042;-71
2022/01/09 04:08:28;;;;;;;66.88;9.13;;;;;;;4.38;100.00;99058.41;4990789;28;20125;-73
2022/01/09 04:10:57;;;;;;;49.00;7.90;;;;;;;4.41;100.00;99052.16;5009886;28;20042;-72
2022/01/09 04:13:23;;;;;;;42.00;7.35;;;;;;;4.40;100.00;99056.47;5010314;28;20029;-71
2022/01/09 04:15:49;;;;;;;48.47;7.40;;;;;;;4.36;100.00;99069.78;5007681;28;20069;-71
2022/01/09 04:18:20;;;;;;;45.17;8.40;;;;;;;4.43;100.00;99081.84;5003371;28;20034;-71
2022/01/09 04:20:50;;;;;;;43.80;5.82;;;;;;;4.40;100.00;99084.69;5005605;28;20056;-73
2022/01/09 04:23:16;;;;;;;42.55;6.22;;;;;;;4.42;100.00;99085.34;5005627;28;20065;-71
2022/01/09 04:25:43;;;;;;;44.30;6.13;;;;;;;4.36;100.00;99103.94;5008305;28;20040;-72
2022/01/09 04:28:10;;;;;;;56.97;5.93;;;;;;;4.36;100.00;99116.78;5007880;28;20033;-71
2022/01/09 04:30:37;;;;;;;41.88;4.97;;;;;;;4.44;99.52;99114.22;5007178;28;20392;-71
2022/01/09 04:33:03;;;;;;;31.95;5.43;;;;;;;4.46;99.17;99120.03;5006154;28;20033;-72
2022/01/09 04:35:29;;;;;;;36.03;4.60;;;;;;;4.40;98.98;99133.47;5003266;28;20421;-72
2022/01/09 04:37:55;;;;;;;34.42;4.45;;;;;;;4.43;98.73;99146.00;5008545;28;20038;-71
2022/01/09 04:40:21;;;;;;;24.77;4.63;;;;;;;4.35;99.05;99155.44;5008079;28;20095;-71
2022/01/09 04:42:57;;;;;;;29.35;3.97;;;;;;;4.35;98.59;99155.44;5007801;28;20117;-71
2022/01/09 04:45:28;;;;;;;30.40;5.57;;;;;;;4.40;98.15;99171.97;5006793;28;20069;-72
2022/01/09 04:47:58;;;;;;;35.00;4.88;;;;;;;4.39;98.05;99179.81;5016250;28;20715;-72
2022/01/09 04:50:25;;;;;;;31.40;5.03;;;;;;;4.38;97.67;99191.84;5006395;28;20151;-71
2022/01/09 04:52:58;;;;;;;31.67;4.47;;;;;;;4.26;97.53;99193.09;5009556;28;20034;-72
2022/01/09 04:55:24;;;;;;;41.63;4.47;;;;;;;4.28;97.62;99191.19;5005110;28;20041;-71
2022/01/09 04:57:50;;;;;;;32.80;4.38;;;;;;;4.28;98.11;99201.44;5013028;28;20034;-71
2022/01/09 05:00:18;;;;;;;32.20;5.07;;;;;;;4.29;97.84;99203.88;5005430;28;20045;-71
2022/01/09 05:02:44;;;;;;;24.42;4.55;;;;;;;4.26;96.80;99213.63;5007756;28;20133;-71
2022/01/09 05:05:10;;;;;;;25.70;3.97;;;;;;;4.21;96.98;99226.91;5006408;28;20504;-72
2022/01/09 05:07:39;;;;;;;25.15;4.28;;;;;;;4.16;97.58;99233.44;5001868;28;20153;-73
2022/01/09 05:10:10;;;;;;;27.70;4.78;;;;;;;4.15;97.33;99248.03;5009003;28;20029;-71
2022/01/09 05:12:36;;;;;;;43.47;4.20;;;;;;;4.11;98.11;99254.44;5008632;28;20072;-72
2022/01/09 05:15:04;;;;;;;35.28;4.47;;;;;;;4.09;97.88;99257.16;5029792;23;20042;-68
2022/01/09 05:17:30;;;;;;;30.17;3.83;;;;;;;4.19;98.09;99274.22;5014892;28;20515;-68
2022/01/09 05:19:57;;;;;;;32.05;3.55;;;;;;;4.11;97.75;99282.66;5027869;28;20040;-68
2022/01/09 05:22:28;;;;;;;21.67;5.03;;;;;;;4.14;97.72;99281.53;5022386;28;20030;-68
2022/01/09 05:24:54;;;;;;;30.25;3.72;;;;;;;4.15;98.16;99293.44;5011873;28;20041;-68
2022/01/09 05:27:24;;;;;;;28.17;3.80;;;;;;;4.13;97.21;99297.91;5007198;28;20025;-68
2022/01/09 05:29:50;;;;;;;24.55;3.33;;;;;;;4.14;96.62;99296.94;4987478;28;20038;-69
2022/01/09 05:32:16;;;;;;;28.52;3.05;;;;;;;4.14;96.60;99307.19;5005873;28;20550;-68
2022/01/09 05:34:42;;;;;;;27.60;4.00;;;;;;;4.19;96.37;99316.06;5001864;28;20025;-68
2022/01/09 05:37:08;;;;;;;29.65;8.82;;;;;;;4.26;96.18;99321.41;4999158;28;20473;-68
2022/01/09 05:39:34;;;;;;;23.50;5.93;;;;;;;4.18;96.24;99321.34;5008511;28;20120;-69
2022/01/09 05:42:06;;;;;;;33.85;8.18;;;;;;;4.14;95.93;99325.16;5001158;28;20117;-68
2022/01/09 05:44:32;;;;;;;40.88;7.63;;;;;;;4.20;95.80;99342.50;4999280;28;20484;-68
2022/01/09 05:46:58;;;;;;;32.05;6.15;;;;;;;4.16;95.20;99330.94;5006812;28;20022;-69
2022/01/09 05:49:24;;;;;;;24.15;4.60;;;;;;;4.10;95.28;99342.63;5010623;28;20038;-68
2022/01/09 05:51:50;;;;;;;32.72;5.80;;;;;;;4.12;95.39;99345.03;5005955;28;20083;-68
2022/01/09 05:54:16;;;;;;;29.73;4.40;;;;;;;4.05;94.71;99363.59;4997482;28;20055;-69
2022/01/09 05:56:41;;;;;;;24.65;3.72;;;;;;;4.08;94.71;99365.84;5005687;28;20038;-69
2022/01/09 05:59:07;;;;;;;28.92;6.28;;;;;;;4.07;94.37;99374.50;5006420;28;20026;-68
2022/01/09 06:01:34;;;;;;;31.15;5.75;;;;;;;4.08;94.23;99372.75;5001775;28;20092;-68
2022/01/09 06:04:00;;;;;;;28.85;4.15;;;;;;;4.04;94.69;99368.88;5005549;28;20586;-68
2022/01/09 06:06:28;;;;;;;24.63;3.85;;;;;;;4.00;94.60;99375.25;5010256;28;20030;-69
2022/01/09 06:08:54;;;;;;;38.17;4.95;;;;;;;3.95;94.66;99388.50;5009899;28;20030;-68
2022/01/09 06:11:20;;;;;;;18.13;3.53;;;;;;;3.99;94.06;99382.13;5003507;28;20511;-68
2022/01/09 06:13:49;;;;;;;38.92;5.78;;;;;;;3.97;93.85;99385.81;4994884;28;20125;-69
2022/01/09 06:16:14;;;;;;;19.17;4.00;;;;;;;4.07;92.92;99389.09;5006681;28;20488;-68
2022/01/09 06:18:40;;;;;;;17.80;3.13;;;;;;;3.92;93.12;99391.38;5008963;28;20032;-69
2022/01/09 06:21:06;;;;;;;23.30;3.50;;;;;;;3.95;92.87;99400.53;5006925;28;20100;-68
2022/01/09 06:23:32;;;;;;;24.70;3.03;;;;;;;3.97;92.78;99398.63;5007973;28;20037;-68
2022/01/09 06:25:58;;;;;;;21.58;4.15;;;;;;;3.98;92.68;99413.06;5011737;28;20032;-68
2022/01/09 06:28:24;;;;;;;33.00;3.70;;;;;;;3.93;93.05;99407.56;5011174;28;20167;-67
2022/01/09 06:30:50;;;;;;;26.48;3.63;;;;;;;3.90;92.61;99414.59;5009441;28;20034;-67
2022/01/09 06:33:16;;;;;;;30.08;2.65;;;;;;;3.97;92.57;99419.16;5006517;28;20029;-68
2022/01/09 06:35:42;;;;;;;28.70;3.53;;;;;;;3.90;92.98;99427.44;5023990;28;20058;-68
2022/01/09 06:38:08;;;;;;;26.17;3.10;;;;;;;3.85;93.40;99427.06;5015209;28;20034;-68
2022/01/09 06:40:34;;;;;;;29.90;3.70;;;;;;;3.92;94.30;99441.84;5007067;28;20405;-68
2022/01/09 06:43:00;;;;;;;19.80;3.10;;;;;;;3.83;94.74;99444.34;5002593;28;20048;-68
2022/01/09 06:45:27;;;;;;;26.70;3.38;;;;;;;3.82;95.67;99447.06;5023605;28;20037;-68
2022/01/09 06:47:57;;;;;;;22.23;3.38;;;;;;;3.83;96.04;99452.03;5024109;28;20029;-69
2022/01/09 06:50:24;;;;;;;28.23;3.65;;;;;;;3.77;96.60;99459.50;5006779;28;20369;-69
2022/01/09 06:52:50;;;;;;;17.27;2.83;;;;;;;3.70;97.35;99462.66;5008590;28;20083;-69
2022/01/09 06:55:19;;;;;;;31.70;3.15;;;;;;;3.76;97.33;99468.94;5011837;28;20395;-69
2022/01/09 06:57:45;;;;;;;28.05;4.30;;;;;;;3.73;97.43;99479.50;5010889;28;20041;-68
2022/01/09 07:00:14;;;;;;;32.33;3.28;;;;;;;3.68;98.27;99482.50;5010168;28;20103;-68
2022/01/09 07:02:40;;;;;;;24.40;3.38;;;;;;;3.65;98.18;99475.06;5008830;28;20116;-69
2022/01/09 07:05:06;;;;;;;22.58;3.22;;;;;;;3.64;97.81;99486.31;5016174;28;20032;-68
2022/01/09 07:07:32;;;;;;;33.10;4.20;;;;;;;3.72;96.92;99502.72;5006229;28;20406;-68
2022/01/09 07:09:58;;;;;;;30.70;4.22;;;;;;;3.77;96.60;99497.97;5010035;28;20038;-68
2022/01/09 07:12:24;;;;;;;27.75;4.72;;;;;;;3.74;95.88;99513.66;5007902;28;20041;-68
2022/01/09 07:14:50;;;;;;;28.25;3.80;;;;;;;3.85;95.16;99510.88;5006817;28;20049;-68
2022/01/09 07:17:18;;;;;;;35.42;5.63;;;;;;;3.85;94.63;99511.69;4996081;28;20042;-69
2022/01/09 07:19:44;;;;;;;32.58;9.02;;;;;;;3.78;95.04;99517.53;5007942;28;20299;-69
2022/01/09 07:22:10;;;;;;;27.75;5.30;;;;;;;3.77;94.70;99511.59;5008629;28;20112;-68
2022/01/09 07:24:36;;;;;;;22.65;4.43;;;;;;;3.80;94.14;99531.81;5002062;28;20499;-69
2022/01/09 07:27:02;;;;;;;27.67;3.25;;;;;;;3.79;93.74;99529.41;5010306;28;20069;-68
2022/01/09 07:29:27;;;;;;;27.20;4.95;;;;;;;3.79;94.35;99540.47;5006849;28;20038;-69
2022/01/09 07:31:53;;;;;;;24.77;4.13;;;;;;;3.75;94.06;99538.31;5000459;28;20037;-69
2022/01/09 07:34:19;;;;;;;28.15;9.00;;;;;;;3.65;94.19;99544.31;5015302;28;20042;-68
2022/01/09 07:36:46;;;;;;;19.02;4.15;;;;;;;3.72;94.10;99551.44;5008282;28;20065;-68
2022/01/09 07:39:11;;;;;;;24.50;3.67;;;;;;;3.68;93.45;99548.34;5006516;28;20029;-69
2022/01/09 07:41:37;;;;;;;25.45;4.88;;;;;;;3.58;93.53;99555.25;5011554;28;20041;-68
2022/01/09 07:44:06;;;;;;;29.20;5.50;;;;;;;3.67;93.26;99560.38;5004108;28;20025;-67
2022/01/09 07:46:32;;;;;;;22.27;5.15;;;;;;;3.71;92.26;99558.31;5004032;28;20445;-68
2022/01/09 07:48:57;;;;;;;28.63;6.35;;;;;;;3.68;92.45;99567.09;5021288;28;20069;-68
2022/01/09 07:51:26;;;;;;;27.15;8.45;;;;;;;3.60;92.22;99566.19;5005188;28;20149;-68
2022/01/09 07:53:52;;;;;;;31.20;10.25;;;;;;;3.54;92.74;99577.81;5008198;28;20030;-68
2022/01/09 07:56:21;;;;;;;27.25;5.95;;;;;;;3.60;92.32;99590.09;4991060;28;20037;-68
2022/01/09 07:58:47;;;;;;;14.02;3.25;;;;;;;3.53;92.60;99603.59;5003446;28;20057;-68
2022/01/09 08:01:13;;;;;;;22.35;3.10;;;;;;;3.56;92.11;99606.69;5024111;28;20506;-67
2022/01/09 08:03:39;;;;;;;16.88;2.00;;;;;;;3.52;92.35;99602.78;5001335;28;20492;-68
2022/01/09 08:06:05;;;;;;;24.10;3.22;;;;;;;3.55;92.31;99601.72;5008637;28;20053;-68
2022/01/09 08:08:30;;;;;;;15.27;3.13;;;;;;;3.54;92.38;99618.03;5010460;28;20038;-68
2022/01/09 08:10:59;;;;;;;16.98;3.45;;;;;;;3.60;92.75;99612.31;5001799;28;20029;-69
2022/01/09 08:13:24;;;;;;;17.45;3.08;;;;;;;3.63;92.16;99612.06;5007102;28;20038;-69
2022/01/09 08:15:50;;;;;;;26.40;5.28;;;;;;;3.66;91.74;99612.59;5000958;28;20036;-68
2022/01/09 08:18:19;;;;;;;23.73;5.85;;;;;;;3.66;91.96;99625.41;5007538;28;20025;-69
2022/01/09 08:20:44;;;;;;;15.35;3.38;;;;;;;3.60;92.19;99623.41;4989507;28;20064;-67
2022/01/09 08:23:10;;;;;;;13.60;3.25;;;;;;;3.72;91.63;99618.13;5023481;28;20378;-69
2022/01/09 08:25:36;;;;;;;26.85;4.43;;;;;;;3.62;92.41;99630.97;5006217;28;20120;-68
2022/01/09 08:28:02;;;;;;;16.83;5.55;;;;;;;3.66;93.02;99632.31;5007829;28;20221;-68
2022/01/09 08:30:28;;;;;;;19.58;4.05;;;;;;;3.67;92.91;99645.00;5005045;28;20141;-68
2022/01/09 08:32:53;;;;;;;19.00;4.38;;;;;;;3.65;93.33;99646.06;5007029;28;20039;-68
2022/01/09 08:35:21;;;;;;;21.73;5.13;;;;;;;3.61;93.83;99639.59;5006183;28;20030;-68
2022/01/09 08:37:47;;;;;;;28.40;4.90;;;;;;;3.65;93.78;99640.94;5013187;28;20038;-68
2022/01/09 08:40:19;;;;;;;20.38;4.65;;;;;;;3.64;93.98;99647.81;5008788;28;20027;-67
2022/01/09 08:42:46;;;;;;;26.85;5.60;;;;;;;3.60;94.66;99646.47;5007450;28;20042;-68
2022/01/09 08:45:11;;;;;;;19.23;4.93;;;;;;;3.64;94.82;99650.38;5003056;28;20037;-68
2022/01/09 08:47:38;;;;;;;26.10;5.05;;;;;;;3.75;94.29;99662.25;5009500;28;20042;-68
2022/01/09 08:50:06;;;;;;;27.88;4.13;;;;;;;3.72;94.30;99661.69;5008929;28;20069;-68
2022/01/09 08:52:35;;;;;;;18.33;5.82;;;;;;;3.72;94.01;99666.84;5023940;28;20519;-68
2022/01/09 08:55:03;;;;;;;23.50;4.00;;;;;;;3.71;93.92;99673.69;5015212;28;20483;-69
2022/01/09 08:57:29;;;;;;;21.52;5.15;;;;;;;3.65;94.21;99669.94;5007242;28;20030;-69
2022/01/09 08:59:55;;;;;;;79.53;28.65;;;;;;;3.70;94.57;99675.47;5007088;28;20139;-68
2022/01/09 09:02:20;;;;;;;49.15;17.65;;;;;;;3.66;93.83;99669.00;5005990;28;20034;-68
2022/01/09 09:04:46;;;;;;;18.67;5.40;;;;;;;3.66;93.59;99674.13;5008019;28;20117;-68
2022/01/09 09:07:18;;;;;;;14.88;3.90;;;;;;;3.85;93.92;99682.72;5011967;28;20045;-68
2022/01/09 09:09:45;;;;;;;15.43;3.65;;;;;;;3.86;92.98;99684.31;5011265;28;20068;-68
2022/01/09 09:12:11;;;;;;;15.15;3.75;;;;;;;3.84;93.22;99686.22;5008238;28;20052;-68
2022/01/09 09:14:37;;;;;;;16.50;3.13;;;;;;;3.90;92.91;99696.75;5005604;28;20496;-68
2022/01/09 09:17:02;;;;;;;17.08;3.33;;;;;;;3.83;93.18;99693.13;5026336;28;20036;-68
2022/01/09 09:19:29;;;;;;;12.27;2.88;;;;;;;3.89;93.36;99689.19;5008198;28;20396;-68
2022/01/09 09:21:57;;;;;;;16.30;4.43;;;;;;;3.80;92.89;99698.50;5004066;28;20038;-68
2022/01/09 09:24:23;;;;;;;11.63;3.15;;;;;;;3.90;93.04;99714.69;5016668;28;20030;-69
2022/01/09 09:26:49;;;;;;;18.05;4.00;;;;;;;3.90;93.05;99717.25;5002050;28;20378;-68
2022/01/09 09:29:15;;;;;;;16.05;4.22;;;;;;;3.87;92.82;99721.84;5011247;28;20029;-67
2022/01/09 09:31:40;;;;;;;15.77;3.40;;;;;;;3.99;92.16;99725.88;5018918;28;20045;-68
2022/01/09 09:34:08;;;;;;;22.92;3.00;;;;;;;3.86;92.01;99728.75;5024218;28;20034;-68
2022/01/09 09:36:37;;;;;;;22.88;3.42;;;;;;;3.92;92.21;99727.38;4996479;28;20140;-68
2022/01/09 09:39:05;;;;;;;15.38;3.72;;;;;;;3.84;92.89;99732.38;5006739;28;20064;-68
2022/01/09 09:41:31;;;;;;;14.07;3.60;;;;;;;3.76;92.88;99743.34;5008728;28;20033;-68
2022/01/09 09:43:57;;;;;;;17.38;3.85;;;;;;;3.75;93.31;99741.72;5025397;28;20029;-67
2022/01/09 09:46:24;;;;;;;12.75;5.18;;;;;;;3.87;92.53;99744.94;5007012;28;20038;-68
2022/01/09 09:48:52;;;;;;;23.17;3.90;;;;;;;3.85;92.41;99752.78;5008720;28;20026;-68
2022/01/09 09:51:18;;;;;;;18.83;4.30;;;;;;;3.89;92.96;99761.00;5023155;28;20033;-68
2022/01/09 09:53:44;;;;;;;15.38;6.00;;;;;;;3.91;92.73;99766.78;5002877;28;20062;-68
2022/01/09 09:56:13;;;;;;;23.33;4.80;;;;;;;3.92;92.67;99760.72;5009942;28;20033;-68
2022/01/09 09:58:40;;;;;;;21.90;6.18;;;;;;;3.94;92.95;99763.13;4999598;28;20042;-71
2022/01/09 10:01:08;;;;;;;19.27;4.68;;;;;;;3.95;92.99;99770.69;5010108;28;20041;-68
2022/01/09 10:03:34;;;;;;;17.10;4.40;;;;;;;3.99;93.72;99776.38;5010184;28;20111;-68
2022/01/09 10:06:01;;;;;;;22.98;4.72;;;;;;;3.94;93.21;99778.53;5009677;28;20061;-68
2022/01/09 10:08:36;;;;;;;18.70;5.28;;;;;;;3.98;92.90;99783.25;5005427;28;20042;-68
2022/01/09 10:11:15;;;;;;;15.30;4.07;;;;;;;3.95;93.17;99769.91;5004100;28;20026;-68
2022/01/09 10:13:41;;;;;;;26.58;6.85;;;;;;;4.05;92.80;99783.50;5011499;28;20034;-68
2022/01/09 10:16:08;;;;;;;25.10;4.65;;;;;;;4.25;92.23;99782.50;5010009;28;20022;-68
2022/01/09 10:18:44;;;;;;;70.72;24.58;;;;;;;4.27;92.23;99785.75;5023590;28;20061;-68
2022/01/09 10:21:22;;;;;;;42.65;13.45;;;;;;;4.35;91.02;99791.94;5006458;28;20488;-69
2022/01/09 10:24:12;;;;;;;14.85;3.67;;;;;;;4.37;91.54;99796.00;5024177;28;20169;-69
2022/01/09 10:26:48;;;;;;;13.75;3.90;;;;;;;4.33;91.25;99804.91;5010977;28;20036;-67
2022/01/09 10:29:14;;;;;;;24.65;5.28;;;;;;;4.24;91.24;99808.34;5008314;28;20488;-68
2022/01/09 10:31:50;;;;;;;20.33;6.68;;;;;;;4.23;90.57;99806.69;5010520;28;20030;-67
2022/01/09 10:34:20;;;;;;;11.88;4.28;;;;;;;4.24;91.00;99808.34;5009451;28;20120;-68
2022/01/09 10:36:51;;;;;;;16.30;4.57;;;;;;;4.26;91.21;99821.84;5009520;28;20660;-67
2022/01/09 10:39:22;;;;;;;13.60;4.28;;;;;;;4.35;90.86;99820.16;5006522;28;20030;-68
2022/01/09 10:41:58;;;;;;;21.83;4.60;;;;;;;4.38;91.53;99814.78;5007678;28;20062;-67
2022/01/09 10:44:35;;;;;;;15.55;4.30;;;;;;;4.46;91.11;99815.69;5009688;28;20034;-67
2022/01/09 10:47:02;;;;;;;15.18;5.72;;;;;;;4.44;90.95;99821.91;5000365;28;20087;-67
2022/01/09 10:49:39;;;;;;;10.50;4.22;;;;;;;4.54;91.06;99829.56;5004724;28;20042;-68
2022/01/09 10:52:20;;;;;;;20.50;5.70;;;;;;;4.75;89.65;99837.09;4997548;28;20045;-68
2022/01/09 10:54:48;;;;;;;18.30;4.20;;;;;;;4.74;90.03;99843.16;5009120;28;20112;-68
2022/01/09 10:57:24;;;;;;;14.75;4.43;;;;;;;4.69;90.27;99843.59;5009079;28;20048;-67
2022/01/09 10:59:50;;;;;;;14.77;4.60;;;;;;;4.58;89.62;99844.56;5017326;28;20507;-68
2022/01/09 11:02:17;;;;;;;18.65;4.45;;;;;;;4.49;89.33;99853.91;5009726;28;20038;-67
2022/01/09 11:04:44;;;;;;;14.20;4.57;;;;;;;4.37;90.72;99856.78;5009020;28;20022;-68
2022/01/09 11:07:11;;;;;;;11.00;3.90;;;;;;;4.38;91.33;99856.66;5006561;28;20626;-67
2022/01/09 11:09:38;;;;;;;10.45;4.00;;;;;;;4.35;91.75;99871.50;5023062;28;20041;-69
2022/01/09 11:12:08;;;;;;;18.55;3.97;;;;;;;4.51;91.21;99863.25;5005500;28;20030;-68
2022/01/09 11:14:39;;;;;;;14.48;4.20;;;;;;;4.62;90.09;99861.31;5008815;28;20559;-69
2022/01/09 11:17:06;;;;;;;21.85;4.35;;;;;;;4.61;89.74;99866.59;5039049;23;20512;-68
2022/01/09 11:19:33;;;;;;;12.23;3.60;;;;;;;4.69;90.44;99864.16;5023052;28;20728;-69
2022/01/09 11:22:02;;;;;;;12.15;3.42;;;;;;;4.79;89.39;99862.34;5027813;28;20175;-68
2022/01/09 11:24:52;;;;;;;16.95;4.05;;;;;;;4.78;89.67;99857.34;5025560;28;20426;-68
2022/01/09 11:27:33;;;;;;;14.05;3.50;;;;;;;4.77;89.63;99856.53;5003590;28;20045;-68
2022/01/09 11:30:31;;;;;;;16.50;4.22;;;;;;;4.83;88.85;99868.00;4995239;28;20698;-68
2022/01/09 11:33:03;;;;;;;14.90;3.88;;;;;;;4.88;88.71;99871.78;4982423;28;20042;-68
2022/01/09 11:35:57;;;;;;;12.80;3.85;;;;;;;4.92;89.12;99868.94;5010981;28;20029;-68
2022/01/09 11:38:50;;;;;;;12.52;5.95;;;;;;;4.86;89.27;99883.16;5023670;28;20079;-68